Time;durP1;ratioP1;P1;durP2;ratioP2;P2;SDS_P1;SDS_P2;PMS_P1;PMS_P2;Temp;Humidity;BMP_temperature;BMP_pressure;BME280_temperature;BME280_humidity;BME280_pressure;Samples;Min_cycle;Max_cycle;Signal;HPM_P1;HPM_P2
2023/07/19 15:40:59;;;;;;;4.03;2.42;;;;;;;33.87;26.32;99878.13;5074622;27;20396;-85
2023/07/19 15:43:24;;;;;;;5.27;1.93;;;;;;;34.05;25.80;99875.97;5057114;28;20896;-84
2023/07/19 15:45:53;;;;;;;5.15;2.38;;;;;;;34.14;25.26;99886.75;5075838;28;20438;-89
2023/07/19 15:48:18;;;;;;;4.72;1.98;;;;;;;33.95;25.02;99876.88;5053583;28;20409;-83
2023/07/19 15:50:43;;;;;;;4.33;2.27;;;;;;;34.05;24.95;99877.97;5049877;28;20501;-86
2023/07/19 15:53:10;;;;;;;4.43;1.87;;;;;;;34.01;25.12;99883.63;5059005;28;20408;-81
2023/07/19 15:55:35;;;;;;;3.40;1.70;;;;;;;33.81;24.83;99874.19;5072434;28;20409;-85
2023/07/19 15:58:00;;;;;;;1.85;1.73;;;;;;;33.82;25.26;99878.59;5083468;28;20444;-80
2023/07/19 16:00:25;;;;;;;2.87;1.73;;;;;;;33.74;25.59;99879.88;5071591;28;20430;-83
2023/07/19 16:02:52;;;;;;;3.57;1.87;;;;;;;33.83;25.59;99878.16;5060528;28;20766;-86
2023/07/19 16:05:17;;;;;;;4.90;1.88;;;;;;;33.81;25.13;99880.59;5068837;28;20417;-85
2023/07/19 16:07:42;;;;;;;5.53;2.27;;;;;;;33.69;25.24;99883.91;5062682;28;20400;-84
2023/07/19 16:10:08;;;;;;;4.13;1.90;;;;;;;33.40;25.49;99883.31;5057944;28;20490;-85
2023/07/19 16:12:33;;;;;;;3.00;1.70;;;;;;;33.22;25.92;99885.47;5056688;28;20454;-82
2023/07/19 16:14:58;;;;;;;5.05;2.10;;;;;;;33.04;25.56;99886.72;5055799;28;20387;-83
2023/07/19 16:17:24;;;;;;;4.07;1.63;;;;;;;32.89;26.31;99884.03;5057276;28;20460;-84
2023/07/19 16:19:49;;;;;;;4.73;2.03;;;;;;;32.87;26.43;99888.44;5058313;28;20414;-87
2023/07/19 16:22:14;;;;;;;2.90;1.60;;;;;;;32.63;26.98;99892.97;5050726;28;20757;-78
2023/07/19 16:24:42;;;;;;;5.27;1.73;;;;;;;32.68;26.74;99891.72;5054730;28;20406;-81
2023/07/19 16:27:07;;;;;;;2.42;1.40;;;;;;;32.70;26.19;99878.88;5076587;28;20758;-80
2023/07/19 16:29:33;;;;;;;5.07;1.87;;;;;;;32.53;26.93;99882.56;5074662;28;20395;-81
2023/07/19 16:32:03;;;;;;;2.47;1.73;;;;;;;32.46;26.90;99896.59;5072435;28;20395;-83
2023/07/19 16:34:29;;;;;;;3.38;1.42;;;;;;;32.23;27.08;99883.06;5067910;28;20400;-80
2023/07/19 16:36:54;;;;;;;3.43;1.77;;;;;;;32.19;27.31;99887.88;5065551;28;20404;-78
2023/07/19 16:39:19;;;;;;;4.53;1.80;;;;;;;32.09;27.21;99883.09;5072695;28;20413;-78
2023/07/19 16:41:44;;;;;;;3.35;1.77;;;;;;;31.99;27.37;99881.06;5082348;28;20884;-79
2023/07/19 16:44:11;;;;;;;3.43;1.67;;;;;;;31.88;27.70;99889.47;5089625;28;20414;-81
2023/07/19 16:46:36;;;;;;;3.92;1.58;;;;;;;31.83;28.14;99894.69;5092872;28;20412;-78
2023/07/19 16:49:01;;;;;;;4.97;1.40;;;;;;;31.70;28.09;99891.50;5092867;28;20442;-79
2023/07/19 16:51:35;;;;;;;3.60;1.47;;;;;;;31.64;28.35;99881.91;5072195;28;20392;-79
2023/07/19 16:54:00;;;;;;;6.10;1.97;;;;;;;31.53;28.09;99886.69;5061718;28;20454;-78
2023/07/19 16:56:26;;;;;;;4.50;1.60;;;;;;;31.40;28.52;99902.25;5060818;28;20996;-81
2023/07/19 16:58:54;;;;;;;4.43;1.70;;;;;;;31.18;28.60;99893.03;5069529;28;20405;-80
2023/07/19 17:01:22;;;;;;;4.68;1.50;;;;;;;30.84;28.87;99894.50;5070523;28;20394;-81
2023/07/19 17:03:47;;;;;;;6.22;1.90;;;;;;;30.77;29.25;99892.47;5070192;28;20415;-77
2023/07/19 17:06:16;;;;;;;2.60;1.67;;;;;;;30.80;29.38;99894.47;5067205;28;20824;-79
2023/07/19 17:08:41;;;;;;;7.80;1.70;;;;;;;30.71;29.64;99893.25;5077574;28;20427;-78
2023/07/19 17:11:14;;;;;;;7.77;1.60;;;;;;;30.56;29.81;99900.78;5072149;28;20477;-82
2023/07/19 17:13:40;;;;;;;6.80;1.50;;;;;;;30.45;30.22;99904.72;5083187;28;20428;-79
2023/07/19 17:16:06;;;;;;;4.28;1.77;;;;;;;30.21;30.15;99898.56;5070169;28;20432;-78
2023/07/19 17:18:34;;;;;;;4.47;1.60;;;;;;;30.04;30.40;99893.66;5086359;28;20402;-80
2023/07/19 17:21:04;;;;;;;5.37;1.80;;;;;;;29.96;30.59;99899.59;5090192;28;20476;-80
2023/07/19 17:23:32;;;;;;;4.20;1.57;;;;;;;29.87;30.87;99899.13;5077244;28;20388;-78
2023/07/19 17:25:57;;;;;;;3.00;1.20;;;;;;;29.73;30.69;99903.41;5065144;28;20757;-77
2023/07/19 17:28:23;;;;;;;4.17;1.57;;;;;;;29.62;31.04;99896.91;5084052;28;20384;-80
2023/07/19 17:30:48;;;;;;;5.65;1.60;;;;;;;29.56;31.36;99903.25;5082830;28;20490;-81
2023/07/19 17:33:23;;;;;;;3.27;1.27;;;;;;;29.49;31.37;99901.19;5057710;28;20447;-81
2023/07/19 17:35:48;;;;;;;6.55;1.65;;;;;;;29.44;31.26;99906.31;5076973;28;20398;-79
2023/07/19 17:38:14;;;;;;;4.70;1.37;;;;;;;29.41;31.76;99915.47;5072526;28;20757;-79
2023/07/19 17:40:39;;;;;;;7.97;1.50;;;;;;;29.34;31.87;99919.00;5080879;28;20428;-79
2023/07/19 17:43:08;;;;;;;3.03;1.10;;;;;;;29.29;32.13;99924.91;5065508;28;20461;-78
2023/07/19 17:45:36;;;;;;;5.80;1.33;;;;;;;29.24;32.23;99925.25;5068057;28;20407;-79
2023/07/19 17:48:01;;;;;;;6.13;1.33;;;;;;;29.17;32.16;99925.16;5086708;28;20397;-79
2023/07/19 17:50:27;;;;;;;5.27;1.73;;;;;;;29.10;32.37;99927.88;5060527;28;20411;-78
2023/07/19 17:52:55;;;;;;;10.70;2.00;;;;;;;29.04;32.28;99926.59;5069538;28;20396;-80
2023/07/19 17:55:21;;;;;;;4.40;1.60;;;;;;;29.04;32.95;99926.59;5065971;28;20425;-78
2023/07/19 17:57:56;;;;;;;4.20;1.50;;;;;;;29.00;32.99;99922.97;5069097;28;20401;-78
2023/07/19 18:00:24;;;;;;;3.67;1.38;;;;;;;28.90;33.07;99930.03;5073257;28;20422;-78
2023/07/19 18:02:50;;;;;;;4.70;1.60;;;;;;;28.81;33.19;99927.56;5048740;28;20414;-77
2023/07/19 18:05:15;;;;;;;4.70;1.40;;;;;;;28.72;33.44;99932.59;5061404;28;20403;-77
2023/07/19 18:07:40;;;;;;;4.87;1.50;;;;;;;28.70;33.29;99937.75;5052027;28;20919;-77
2023/07/19 18:10:12;;;;;;;5.13;1.50;;;;;;;28.67;33.59;99941.31;5067335;28;20398;-78
2023/07/19 18:12:37;;;;;;;3.20;1.58;;;;;;;28.67;33.65;99940.50;5068214;28;20428;-74
2023/07/19 18:15:05;;;;;;;5.17;1.37;;;;;;;28.72;33.48;99954.09;5052811;28;20894;-77
2023/07/19 18:17:32;;;;;;;3.63;1.48;;;;;;;28.72;33.50;99957.69;5064267;28;20886;-75
2023/07/19 18:19:58;;;;;;;4.07;1.83;;;;;;;28.55;33.55;99958.22;5065437;28;20798;-76
2023/07/19 18:22:38;;;;;;;7.50;1.93;;;;;;;28.52;33.54;99958.97;5069708;28;20475;-76
2023/07/19 18:25:03;;;;;;;5.50;1.37;;;;;;;28.52;33.63;99969.34;5049821;28;20495;-76
2023/07/19 18:27:29;;;;;;;2.42;1.20;;;;;;;28.51;33.71;99968.53;5060384;28;20433;-76
2023/07/19 18:29:54;;;;;;;3.03;1.60;;;;;;;28.50;33.66;99964.13;5056043;28;21021;-77
2023/07/19 18:32:19;;;;;;;3.35;1.25;;;;;;;28.42;33.65;99970.00;5059694;28;20483;-77
2023/07/19 18:34:45;;;;;;;4.40;1.33;;;;;;;28.37;33.51;99978.66;5061093;28;21040;-77
2023/07/19 18:37:11;;;;;;;3.00;1.40;;;;;;;28.33;33.76;99981.41;5067018;28;20403;-77
2023/07/19 18:39:37;;;;;;;6.93;1.50;;;;;;;28.31;33.93;99975.41;5067946;28;20425;-77
2023/07/19 18:42:03;;;;;;;7.82;1.58;;;;;;;28.22;34.09;99980.44;5061070;28;20759;-77
2023/07/19 18:45:04;;;;;;;4.07;1.37;;;;;;;28.24;34.43;99983.66;5062390;28;20397;-77
2023/07/19 18:47:29;;;;;;;7.87;1.43;;;;;;;28.18;34.83;99980.38;5038911;28;20395;-77
2023/07/19 18:49:57;;;;;;;4.93;1.63;;;;;;;28.14;34.44;99979.53;5073894;28;20387;-77
2023/07/19 18:52:23;;;;;;;3.25;1.20;;;;;;;28.04;34.44;99977.34;5063574;28;20405;-77
2023/07/19 18:57:33;;;;;;;3.50;1.35;;;;;;;27.94;34.47;99986.31;5067070;28;20452;-77
2023/07/19 18:59:59;;;;;;;3.20;1.23;;;;;;;27.87;35.02;99991.75;5058688;28;20411;-77
2023/07/19 19:02:24;;;;;;;2.20;1.20;;;;;;;27.81;34.62;99994.06;5068217;28;20428;-78
2023/07/19 19:04:50;;;;;;;4.43;1.50;;;;;;;27.78;34.64;99999.56;5071020;28;20407;-77
2023/07/19 19:07:16;;;;;;;4.32;1.10;;;;;;;27.77;34.57;100004.31;5054700;28;20734;-77
2023/07/19 19:09:43;;;;;;;3.03;1.20;;;;;;;27.75;34.59;100003.09;5066764;28;20474;-77
2023/07/19 19:12:14;;;;;;;3.50;1.10;;;;;;;27.65;34.55;100007.31;5071064;28;20903;-77
2023/07/19 19:14:42;;;;;;;5.05;1.30;;;;;;;27.64;34.81;100011.25;5063012;28;20798;-76
2023/07/19 19:17:16;;;;;;;5.03;1.10;;;;;;;27.61;35.30;100017.56;5068183;28;20423;-77
2023/07/19 19:19:42;;;;;;;2.85;1.00;;;;;;;27.60;35.89;100017.91;5058526;28;20415;-76
2023/07/19 19:22:15;;;;;;;5.63;1.63;;;;;;;27.54;35.46;100024.97;5065178;28;20487;-77
2023/07/19 19:24:52;;;;;;;6.75;1.90;;;;;;;27.47;35.62;100024.81;5082772;28;20428;-76
2023/07/19 19:27:18;;;;;;;5.22;1.40;;;;;;;27.43;35.39;100029.50;5061438;28;20411;-77
2023/07/19 19:29:44;;;;;;;7.07;1.20;;;;;;;27.38;35.51;100027.81;5063639;28;20476;-76
2023/07/19 19:32:12;;;;;;;2.70;1.10;;;;;;;27.29;35.85;100032.81;5061309;28;20431;-76
2023/07/19 19:34:38;;;;;;;4.72;1.23;;;;;;;27.23;36.03;100031.50;5064680;28;20397;-76
2023/07/19 19:37:07;;;;;;;5.30;1.42;;;;;;;27.16;36.06;100037.72;5074373;28;20404;-76
2023/07/19 19:39:35;;;;;;;5.00;1.33;;;;;;;27.12;35.84;100041.59;5063739;28;20424;-77
2023/07/19 19:42:01;;;;;;;3.75;1.40;;;;;;;27.07;36.23;100042.66;5064420;28;20796;-77
2023/07/19 19:45:01;;;;;;;5.63;1.40;;;;;;;27.01;36.28;100051.66;5070946;28;20421;-77
2023/07/19 19:47:27;;;;;;;5.22;1.30;;;;;;;26.98;36.88;100055.19;5072566;28;20439;-77
2023/07/19 19:49:53;;;;;;;2.03;0.98;;;;;;;26.96;36.79;100065.88;5057534;28;20424;-77
2023/07/19 19:52:21;;;;;;;3.60;1.13;;;;;;;26.93;36.85;100064.63;5057878;28;20500;-77
2023/07/19 19:54:47;;;;;;;2.45;1.25;;;;;;;26.89;36.57;100072.09;5068692;28;20407;-77
2023/07/19 19:57:18;;;;;;;2.77;1.20;;;;;;;26.84;36.58;100072.34;5072205;28;20402;-77
2023/07/19 19:59:44;;;;;;;5.18;1.10;;;;;;;26.79;36.86;100075.41;5040529;28;20409;-77
2023/07/19 20:02:10;;;;;;;3.17;1.30;;;;;;;26.75;37.08;100085.63;5063270;28;20397;-76
2023/07/19 20:04:35;;;;;;;1.80;1.17;;;;;;;26.76;37.12;100078.91;5074297;28;20394;-76
2023/07/19 20:07:00;;;;;;;3.80;1.30;;;;;;;26.74;36.81;100075.69;5062419;28;20427;-77
2023/07/19 20:09:36;;;;;;;3.75;1.17;;;;;;;26.72;36.48;100086.34;5061200;28;20410;-77
2023/07/19 20:12:01;;;;;;;1.38;0.90;;;;;;;26.68;36.63;100091.00;5068411;28;20851;-77
2023/07/19 20:14:27;;;;;;;4.53;1.38;;;;;;;26.60;36.72;100092.84;5055750;28;20476;-77
2023/07/19 20:16:52;;;;;;;0.90;0.90;;;;;;;26.58;36.41;100109.06;5057104;28;20459;-77
2023/07/19 20:19:18;;;;;;;2.93;1.27;;;;;;;26.58;36.48;100099.91;5060007;28;20397;-77
2023/07/19 20:21:47;;;;;;;1.30;1.00;;;;;;;26.53;36.69;100102.97;5059616;28;20880;-77
2023/07/19 20:24:12;;;;;;;1.27;1.20;;;;;;;26.50;36.88;100104.50;5085799;28;20394;-77
2023/07/19 20:26:43;;;;;;;2.47;1.00;;;;;;;26.47;36.96;100108.00;5077665;28;20887;-77
2023/07/19 20:29:08;;;;;;;3.10;1.10;;;;;;;26.39;37.30;100097.88;5068420;28;20398;-77
2023/07/19 20:31:39;;;;;;;1.53;1.00;;;;;;;26.36;37.16;100106.91;5084656;28;20386;-77
2023/07/19 20:34:04;;;;;;;3.00;1.52;;;;;;;26.33;37.08;100110.41;5060624;28;20733;-77
2023/07/19 20:36:35;;;;;;;4.40;1.40;;;;;;;26.33;37.17;100120.72;5076247;28;20391;-77
2023/07/19 20:39:06;;;;;;;2.10;0.90;;;;;;;26.29;37.47;100117.84;5084517;28;20395;-77
2023/07/19 20:41:31;;;;;;;1.40;1.30;;;;;;;26.29;37.32;100121.44;5090847;28;20408;-77
2023/07/19 20:43:58;;;;;;;2.97;1.40;;;;;;;26.33;37.61;100117.94;5090706;28;20382;-77
2023/07/19 20:46:24;;;;;;;2.42;1.40;;;;;;;26.32;37.67;100125.47;5083302;28;20382;-77
2023/07/19 20:48:49;;;;;;;3.93;1.30;;;;;;;26.29;37.49;100127.00;5069457;28;20743;-77
2023/07/19 20:51:15;;;;;;;1.27;1.17;;;;;;;26.25;38.17;100137.19;5081260;28;20402;-78
2023/07/19 20:53:40;;;;;;;1.40;1.30;;;;;;;26.21;38.32;100129.97;5078054;28;20384;-77
2023/07/19 20:56:05;;;;;;;5.53;1.67;;;;;;;26.22;38.23;100134.31;5072764;28;20407;-77
2023/07/19 20:58:31;;;;;;;3.30;1.95;;;;;;;26.21;38.07;100139.06;5058084;28;20449;-77
2023/07/19 21:00:57;;;;;;;2.57;1.83;;;;;;;26.15;38.38;100131.31;5094937;28;20410;-77
2023/07/19 21:03:23;;;;;;;2.10;1.85;;;;;;;26.12;38.24;100132.03;5064477;28;20509;-77
2023/07/19 21:05:50;;;;;;;3.37;1.97;;;;;;;26.10;38.51;100134.38;5069499;28;20407;-77
2023/07/19 21:08:18;;;;;;;2.58;1.50;;;;;;;26.07;38.90;100130.34;5074030;28;20388;-77
2023/07/19 21:10:46;;;;;;;4.07;2.03;;;;;;;26.03;38.76;100128.63;5071098;28;20462;-77
2023/07/19 21:13:11;;;;;;;3.28;2.20;;;;;;;25.98;38.95;100134.47;5086735;28;20394;-76
2023/07/19 21:15:42;;;;;;;2.83;2.17;;;;;;;25.97;39.01;100138.38;5090193;28;20473;-77
2023/07/19 21:18:13;;;;;;;4.78;1.90;;;;;;;25.94;38.76;100136.31;5069719;28;20387;-77
2023/07/19 21:20:39;;;;;;;2.38;2.17;;;;;;;25.91;38.66;100137.84;5069863;28;20916;-77
2023/07/19 21:23:04;;;;;;;8.10;2.50;;;;;;;25.86;38.76;100140.88;5053385;28;20400;-77
2023/07/19 21:25:30;;;;;;;2.50;2.20;;;;;;;25.83;38.79;100141.56;5051210;28;20884;-77
2023/07/19 21:27:55;;;;;;;4.80;2.20;;;;;;;25.79;38.87;100144.25;5063903;28;20431;-77
2023/07/19 21:30:21;;;;;;;5.27;2.27;;;;;;;25.78;38.88;100142.63;5088170;28;20384;-77
2023/07/19 21:32:47;;;;;;;2.73;2.53;;;;;;;25.73;38.59;100142.91;5075584;28;20477;-77
2023/07/19 21:35:12;;;;;;;2.53;2.33;;;;;;;25.73;39.00;100144.84;5088315;28;20443;-77
2023/07/19 21:37:37;;;;;;;2.90;2.20;;;;;;;25.67;38.81;100149.88;5086382;28;20394;-77
2023/07/19 21:40:04;;;;;;;5.53;2.30;;;;;;;25.61;39.29;100150.47;5065356;28;20892;-76
2023/07/19 21:42:30;;;;;;;2.65;2.35;;;;;;;25.57;39.69;100144.00;5066469;28;20453;-76
2023/07/19 21:44:56;;;;;;;5.13;2.92;;;;;;;25.55;39.78;100141.59;5045916;28;20477;-76
2023/07/19 21:47:21;;;;;;;4.77;2.30;;;;;;;25.55;40.10;100140.78;5052915;28;20826;-76
2023/07/19 21:49:46;;;;;;;2.50;2.30;;;;;;;25.52;39.36;100142.28;5095236;28;20813;-77
2023/07/19 21:52:11;;;;;;;3.00;2.37;;;;;;;25.42;38.88;100139.19;5057550;28;20433;-77
2023/07/19 21:54:37;;;;;;;5.33;2.10;;;;;;;25.36;38.52;100146.91;5065959;28;20436;-77
2023/07/19 21:57:02;;;;;;;6.00;1.77;;;;;;;25.35;38.02;100153.66;5053330;28;20405;-77
2023/07/19 21:59:28;;;;;;;2.00;1.90;;;;;;;25.35;38.50;100161.97;5062688;28;20421;-77
2023/07/19 22:01:53;;;;;;;3.37;2.20;;;;;;;25.27;39.04;100154.56;5055413;28;20494;-77
2023/07/19 22:04:18;;;;;;;3.40;1.73;;;;;;;25.23;38.98;100165.56;5060734;28;20457;-77
2023/07/19 22:06:43;;;;;;;2.33;2.03;;;;;;;25.12;39.02;100161.66;5057835;28;20420;-77
2023/07/19 22:09:09;;;;;;;2.20;2.10;;;;;;;25.05;39.27;100157.84;5040434;28;20770;-77
2023/07/19 22:11:36;;;;;;;5.77;2.43;;;;;;;24.95;39.15;100169.41;5064865;28;20393;-77
2023/07/19 22:14:06;;;;;;;4.25;1.90;;;;;;;24.82;38.82;100162.22;5043214;28;20748;-77
2023/07/19 22:16:43;;;;;;;3.70;2.00;;;;;;;24.86;39.21;100166.78;5036836;28;20407;-77
2023/07/19 22:19:08;;;;;;;2.42;2.20;;;;;;;24.83;38.98;100169.44;5042505;28;20418;-77
2023/07/19 22:21:34;;;;;;;1.70;1.57;;;;;;;24.87;39.19;100173.91;5038268;28;20408;-76
2023/07/19 22:23:59;;;;;;;5.72;1.80;;;;;;;24.83;38.98;100170.22;5037546;28;20428;-76
2023/07/19 22:26:25;;;;;;;2.27;1.50;;;;;;;24.78;38.35;100173.19;5036275;28;20413;-77
2023/07/19 22:28:58;;;;;;;2.10;1.80;;;;;;;24.77;37.69;100172.38;5035665;28;20888;-77
2023/07/19 22:31:23;;;;;;;4.68;1.73;;;;;;;24.78;37.96;100173.19;5036081;28;20413;-77
2023/07/19 22:33:49;;;;;;;3.03;1.83;;;;;;;24.74;37.31;100175.84;5039430;28;20412;-77
2023/07/19 22:36:14;;;;;;;2.67;1.80;;;;;;;24.65;37.80;100174.34;5041919;28;20413;-77
2023/07/19 22:38:39;;;;;;;3.77;1.47;;;;;;;24.65;38.26;100177.13;5037720;28;21916;-77
2023/07/19 22:41:05;;;;;;;1.83;1.60;;;;;;;24.58;37.85;100179.66;5057911;28;20772;-77
2023/07/19 22:43:32;;;;;;;1.80;1.50;;;;;;;24.61;38.06;100178.97;5059999;28;20468;-76
2023/07/19 22:45:57;;;;;;;1.37;1.27;;;;;;;24.65;37.55;100177.13;5058162;28;20400;-76
2023/07/19 22:48:22;;;;;;;3.43;1.87;;;;;;;24.66;37.96;100178.75;5054579;28;20417;-77
2023/07/19 22:50:48;;;;;;;3.70;1.50;;;;;;;24.57;38.49;100172.47;5061830;28;20941;-77
2023/07/19 22:53:13;;;;;;;3.90;1.95;;;;;;;24.48;38.40;100175.38;5055464;28;20417;-76
2023/07/19 22:55:39;;;;;;;3.37;1.77;;;;;;;24.48;38.50;100171.78;5057371;28;20408;-77
2023/07/19 22:58:04;;;;;;;3.03;1.40;;;;;;;24.57;38.59;100169.72;5059790;28;20782;-76
2023/07/19 23:00:30;;;;;;;2.20;1.37;;;;;;;24.57;38.56;100173.28;5059804;28;20429;-76
2023/07/19 23:02:55;;;;;;;2.90;1.58;;;;;;;24.44;38.90;100170.84;5063088;28;20443;-76
2023/07/19 23:05:21;;;;;;;2.47;1.60;;;;;;;24.47;38.79;100176.50;5059896;28;20409;-76
2023/07/19 23:07:46;;;;;;;2.53;1.60;;;;;;;24.48;39.01;100180.09;5041908;28;20413;-76
2023/07/19 23:10:11;;;;;;;2.63;1.57;;;;;;;24.42;38.96;100182.28;5051890;28;20410;-77
2023/07/19 23:12:37;;;;;;;2.00;1.63;;;;;;;24.42;39.27;100184.25;5052106;28;20760;-77
2023/07/19 23:15:03;;;;;;;2.08;1.63;;;;;;;24.45;39.43;100180.78;5059762;28;20471;-77
2023/07/19 23:17:29;;;;;;;2.00;1.80;;;;;;;24.37;39.52;100195.56;5056759;28;20414;-77
2023/07/19 23:19:54;;;;;;;2.80;1.30;;;;;;;24.32;39.71;100185.50;5055644;28;20412;-77
2023/07/19 23:22:19;;;;;;;3.20;1.80;;;;;;;24.36;39.67;100194.75;5057683;28;20405;-76
2023/07/19 23:24:45;;;;;;;3.27;2.30;;;;;;;24.41;39.13;100199.25;5067417;28;20443;-76
2023/07/19 23:27:11;;;;;;;2.22;1.33;;;;;;;24.34;39.09;100187.91;5054895;28;20434;-77
2023/07/19 23:29:37;;;;;;;1.40;1.40;;;;;;;24.30;39.58;100192.53;5057834;28;20878;-76
2023/07/19 23:32:03;;;;;;;2.63;1.50;;;;;;;24.22;39.39;100189.53;5057383;28;20948;-77
2023/07/19 23:34:29;;;;;;;3.22;1.40;;;;;;;24.18;39.89;100196.88;5057196;28;20458;-76
2023/07/19 23:36:56;;;;;;;1.60;1.50;;;;;;;24.19;40.11;100204.06;5054904;28;20982;-76
2023/07/19 23:39:22;;;;;;;1.92;1.60;;;;;;;24.10;40.52;100202.50;5045822;28;20494;-76
2023/07/19 23:41:48;;;;;;;3.03;1.65;;;;;;;24.12;40.80;100202.97;5056863;28;20419;-77
2023/07/19 23:44:13;;;;;;;1.53;1.43;;;;;;;24.05;40.84;100211.81;5039886;28;20776;-76
2023/07/19 23:46:39;;;;;;;1.97;1.57;;;;;;;23.89;41.51;100210.81;5059209;28;20976;-77
2023/07/19 23:49:04;;;;;;;2.70;1.60;;;;;;;23.92;41.64;100212.09;5039221;28;20416;-77
2023/07/19 23:51:30;;;;;;;2.25;1.80;;;;;;;23.84;41.32;100213.81;5057805;28;20537;-76
2023/07/19 23:53:56;;;;;;;2.75;1.65;;;;;;;23.83;41.47;100212.19;5044388;28;20420;-77
2023/07/19 23:56:22;;;;;;;2.75;1.83;;;;;;;23.70;41.52;100214.09;5055985;28;20499;-76
2023/07/19 23:58:47;;;;;;;3.30;1.70;;;;;;;23.64;41.70;100217.41;5057360;28;20924;-76
